Time;durP1;ratioP1;P1;durP2;ratioP2;P2;SDS_P1;SDS_P2;PMS_P1;PMS_P2;Temp;Humidity;BMP_temperature;BMP_pressure;BME280_temperature;BME280_humidity;BME280_pressure;Samples;Min_cycle;Max_cycle;Signal;HPM_P1;HPM_P2
2021/05/19 00:01:36;;;;;;;45.25;28.25;;;7.60;99.90;;;;;;4990213;28;20486;-77
2021/05/19 00:04:03;;;;;;;47.83;28.55;;;7.50;99.90;;;;;;5004422;28;20060;-76
2021/05/19 00:06:32;;;;;;;44.30;27.42;;;7.40;99.90;;;;;;4987961;28;20044;-76
2021/05/19 00:08:59;;;;;;;47.08;27.40;;;7.30;99.90;;;;;;4987679;28;20709;-76
2021/05/19 00:11:28;;;;;;;44.67;27.90;;;7.30;99.90;;;;;;4987264;28;20157;-76
2021/05/19 00:13:57;;;;;;;54.45;29.20;;;7.30;99.90;;;;;;5004216;28;20379;-76
2021/05/19 00:16:29;;;;;;;53.45;29.30;;;7.20;99.90;;;;;;4985980;28;20056;-76
2021/05/19 00:18:57;;;;;;;50.22;28.48;;;7.30;99.90;;;;;;4970697;28;20054;-76
2021/05/19 00:21:28;;;;;;;54.97;31.40;;;7.20;99.90;;;;;;4978162;28;20060;-76
2021/05/19 00:24:00;;;;;;;57.22;32.28;;;7.10;99.90;;;;;;5006092;28;20076;-76
2021/05/19 00:26:28;;;;;;;60.50;32.90;;;7.10;99.90;;;;;;4966329;28;20046;-76
2021/05/19 00:28:56;;;;;;;62.20;33.90;;;7.10;99.90;;;;;;4970898;28;20329;-76
2021/05/19 00:31:31;;;;;;;62.65;32.90;;;7.10;99.90;;;;;;5001842;28;20058;-76
2021/05/19 00:33:59;;;;;;;59.83;34.08;;;7.00;99.90;;;;;;4988218;28;20041;-76
2021/05/19 00:36:27;;;;;;;68.55;36.40;;;7.00;99.90;;;;;;4983911;28;20050;-76
2021/05/19 00:38:57;;;;;;;71.32;37.55;;;7.00;99.90;;;;;;4984572;28;20085;-76
2021/05/19 00:41:26;;;;;;;78.28;41.17;;;7.00;99.90;;;;;;4966530;28;20112;-76
2021/05/19 00:44:05;;;;;;;77.43;39.60;;;6.90;99.90;;;;;;5001836;28;20502;-76
2021/05/19 00:46:33;;;;;;;89.70;42.97;;;6.90;99.90;;;;;;4992100;28;20046;-76
2021/05/19 00:49:01;;;;;;;90.70;45.28;;;6.90;99.90;;;;;;4985347;28;20045;-77
2021/05/19 00:51:30;;;;;;;95.13;45.30;;;6.90;99.90;;;;;;4998114;28;20092;-76
2021/05/19 00:53:58;;;;;;;90.22;44.22;;;6.90;99.90;;;;;;5002907;28;20521;-76
2021/05/19 00:56:26;;;;;;;105.63;48.47;;;6.80;99.90;;;;;;4970099;28;20415;-76
2021/05/19 00:58:58;;;;;;;98.28;46.22;;;6.80;99.90;;;;;;4967676;28;20130;-76
2021/05/19 01:01:25;;;;;;;103.68;45.67;;;6.70;99.90;;;;;;4970132;28;20104;-76
2021/05/19 01:04:04;;;;;;;97.38;47.58;;;6.70;99.90;;;;;;4971070;28;20085;-76
2021/05/19 01:06:56;;;;;;;100.20;46.72;;;6.70;99.90;;;;;;4981474;28;20042;-75
2021/05/19 01:09:35;;;;;;;114.45;48.95;;;6.60;99.90;;;;;;4951003;28;20058;-76
2021/05/19 01:16:25;;;;;;;122.60;52.22;;;6.60;99.90;;;;;;4926491;28;20023;-75
2021/05/19 01:18:54;;;;;;;121.40;52.65;;;6.50;99.90;;;;;;4925027;28;20620;-76
2021/05/19 01:21:28;;;;;;;124.63;51.60;;;6.60;99.90;;;;;;4978309;28;20100;-75
2021/05/19 01:24:03;;;;;;;109.70;52.45;;;6.50;99.90;;;;;;4947001;28;20058;-76
2021/05/19 01:26:35;;;;;;;138.38;58.58;;;6.60;99.90;;;;;;4976032;28;20093;-76
2021/05/19 01:29:03;;;;;;;131.02;58.00;;;6.70;99.90;;;;;;4982499;28;20114;-76
2021/05/19 01:31:31;;;;;;;134.07;54.33;;;6.80;99.90;;;;;;4966203;28;20120;-76
2021/05/19 01:33:58;;;;;;;128.45;56.25;;;6.70;99.90;;;;;;4950079;28;20574;-76
2021/05/19 01:36:31;;;;;;;125.13;56.15;;;6.80;99.90;;;;;;4994168;28;20400;-76
2021/05/19 01:39:00;;;;;;;123.03;53.75;;;6.70;99.90;;;;;;4967028;28;20054;-76
2021/05/19 01:41:28;;;;;;;134.55;56.75;;;6.90;99.90;;;;;;4950124;28;20062;-76
2021/05/19 01:43:57;;;;;;;150.02;53.83;;;7.00;99.90;;;;;;4947255;28;20578;-76
2021/05/19 01:46:31;;;;;;;122.20;55.60;;;7.00;99.90;;;;;;4975522;28;20251;-76
2021/05/19 01:48:59;;;;;;;135.65;55.15;;;6.90;99.90;;;;;;4950579;28;20050;-76
2021/05/19 01:51:31;;;;;;;98.10;50.90;;;6.80;99.90;;;;;;4958077;28;20488;-76
2021/05/19 01:53:58;;;;;;;121.35;52.97;;;6.80;99.90;;;;;;4983561;28;20426;-76
2021/05/19 01:56:26;;;;;;;122.75;50.50;;;6.90;99.90;;;;;;4982115;28;20042;-76
2021/05/19 01:58:59;;;;;;;117.53;49.63;;;6.90;99.90;;;;;;4951356;28;20165;-76
2021/05/19 02:01:28;;;;;;;142.40;55.58;;;6.80;99.90;;;;;;4966042;28;20089;-76
2021/05/19 02:04:14;;;;;;;132.35;55.15;;;6.80;99.90;;;;;;4956369;28;20642;-76
2021/05/19 02:06:50;;;;;;;127.07;52.45;;;6.80;99.90;;;;;;4965934;28;20515;-76
2021/05/19 02:09:23;;;;;;;150.00;56.28;;;6.70;99.90;;;;;;4949019;28;20108;-77
2021/05/19 02:11:57;;;;;;;131.07;52.95;;;6.60;99.90;;;;;;4966203;28;20535;-76
2021/05/19 02:14:28;;;;;;;122.43;52.35;;;6.60;99.90;;;;;;4975683;28;20142;-76
2021/05/19 02:17:00;;;;;;;134.90;54.08;;;6.60;99.90;;;;;;4957436;28;20047;-76
2021/05/19 02:19:27;;;;;;;111.53;50.38;;;6.50;99.90;;;;;;4984866;28;20069;-76
2021/05/19 02:21:59;;;;;;;122.43;50.95;;;6.30;99.90;;;;;;4961689;28;20073;-76
2021/05/19 02:24:33;;;;;;;148.20;54.25;;;6.20;99.90;;;;;;4989479;28;20438;-76
2021/05/19 02:27:01;;;;;;;141.45;53.72;;;6.20;99.90;;;;;;4989553;28;20050;-76
2021/05/19 02:29:30;;;;;;;141.93;53.40;;;6.10;99.90;;;;;;4989800;28;20046;-76
2021/05/19 02:32:00;;;;;;;123.95;52.45;;;6.10;99.90;;;;;;5002066;28;20072;-76
2021/05/19 02:34:27;;;;;;;135.52;53.50;;;6.00;99.90;;;;;;4976669;28;20050;-76
2021/05/19 02:36:59;;;;;;;128.90;51.72;;;6.00;99.90;;;;;;4950071;28;20054;-76
2021/05/19 02:39:26;;;;;;;123.13;51.45;;;6.00;99.90;;;;;;4934737;28;20106;-76
2021/05/19 02:42:00;;;;;;;130.88;50.30;;;6.00;99.90;;;;;;4952983;28;20057;-76
2021/05/19 02:44:27;;;;;;;143.80;53.88;;;6.00;99.90;;;;;;4979171;28;20081;-76
2021/05/19 02:47:00;;;;;;;134.10;51.47;;;5.90;99.90;;;;;;4965707;28;20054;-76
2021/05/19 02:49:27;;;;;;;128.40;51.38;;;5.80;99.90;;;;;;4985965;28;20082;-76
2021/05/19 02:52:02;;;;;;;116.72;47.70;;;5.70;99.90;;;;;;4985203;28;20116;-76
2021/05/19 02:54:29;;;;;;;110.55;48.22;;;5.70;99.90;;;;;;4998623;28;20054;-76
2021/05/19 02:56:59;;;;;;;130.43;48.65;;;5.70;99.90;;;;;;4980356;28;20042;-76
2021/05/19 02:59:27;;;;;;;133.48;49.88;;;5.70;99.90;;;;;;4984925;28;20050;-77
2021/05/19 03:01:59;;;;;;;108.18;45.72;;;5.70;99.90;;;;;;4984245;28;20120;-76
2021/05/19 03:04:27;;;;;;;112.55;48.25;;;5.70;99.90;;;;;;4955618;28;20450;-76
2021/05/19 03:07:00;;;;;;;113.45;49.58;;;5.70;99.90;;;;;;5005804;28;20112;-76
2021/05/19 03:09:27;;;;;;;117.80;50.35;;;5.70;99.90;;;;;;5005271;28;20112;-76
2021/05/19 03:12:00;;;;;;;106.32;47.58;;;5.70;99.90;;;;;;5004022;28;20218;-76
2021/05/19 03:14:27;;;;;;;130.60;52.40;;;5.70;99.90;;;;;;4998514;28;20057;-76
2021/05/19 03:17:01;;;;;;;123.20;50.28;;;5.60;99.90;;;;;;4948937;28;20086;-76
2021/05/19 03:19:29;;;;;;;136.90;52.67;;;5.60;99.90;;;;;;4952644;28;20082;-76
2021/05/19 03:21:57;;;;;;;123.93;50.05;;;5.40;99.90;;;;;;5004134;28;20149;-76
2021/05/19 03:24:24;;;;;;;121.80;50.17;;;5.30;99.90;;;;;;4983762;28;20125;-76
2021/05/19 03:26:52;;;;;;;143.40;54.83;;;5.30;99.90;;;;;;4981374;28;20360;-76
2021/05/19 03:29:20;;;;;;;121.53;51.92;;;5.50;99.90;;;;;;5001200;28;20047;-76
2021/05/19 03:31:47;;;;;;;136.57;53.47;;;5.50;99.90;;;;;;4984712;28;20300;-76
2021/05/19 03:34:14;;;;;;;128.85;51.28;;;5.50;99.90;;;;;;4981591;28;20062;-76
2021/05/19 03:36:41;;;;;;;135.10;52.90;;;5.40;99.90;;;;;;4977625;28;20489;-77
2021/05/19 03:39:12;;;;;;;127.07;51.08;;;5.30;99.90;;;;;;4968639;28;20104;-75
2021/05/19 03:41:39;;;;;;;164.77;59.20;;;5.40;99.90;;;;;;4991854;28;20402;-75
2021/05/19 03:44:07;;;;;;;129.80;51.53;;;5.70;99.90;;;;;;4988421;28;20057;-75
2021/05/19 03:46:35;;;;;;;151.30;55.70;;;5.60;99.90;;;;;;4983423;28;20442;-75
2021/05/19 03:49:02;;;;;;;143.15;55.28;;;5.60;99.90;;;;;;4967811;28;20141;-74
2021/05/19 03:51:31;;;;;;;144.27;56.28;;;5.70;99.90;;;;;;4977801;28;20134;-74
2021/05/19 03:53:59;;;;;;;189.55;61.33;;;5.70;99.90;;;;;;4974734;28;20053;-75
2021/05/19 03:56:27;;;;;;;156.80;59.53;;;5.60;99.90;;;;;;5006606;28;20045;-75
2021/05/19 03:58:56;;;;;;;141.00;54.17;;;5.50;99.90;;;;;;4990493;28;20053;-76
2021/05/19 04:01:26;;;;;;;151.57;56.03;;;5.50;99.90;;;;;;5006685;28;20568;-75
2021/05/19 04:03:56;;;;;;;143.45;52.35;;;5.40;99.90;;;;;;4962299;28;20070;-75
2021/05/19 04:06:32;;;;;;;126.40;47.15;;;5.40;99.90;;;;;;5003648;28;20545;-76
2021/05/19 04:08:59;;;;;;;102.15;45.60;;;5.30;99.90;;;;;;5003638;28;20495;-76
2021/05/19 04:11:26;;;;;;;93.20;43.05;;;5.20;99.90;;;;;;4986608;28;20069;-76
2021/05/19 04:13:55;;;;;;;121.32;47.90;;;5.30;99.90;;;;;;5004584;28;20381;-76
2021/05/19 04:16:27;;;;;;;122.57;47.50;;;5.50;99.90;;;;;;4999338;28;20133;-77
2021/05/19 04:18:58;;;;;;;147.75;54.15;;;5.70;99.90;;;;;;4968332;28;20130;-77
2021/05/19 04:21:31;;;;;;;150.50;57.72;;;5.70;99.90;;;;;;4997670;28;20073;-75
2021/05/19 04:24:00;;;;;;;136.80;52.85;;;5.50;99.90;;;;;;4969775;28;20331;-75
2021/05/19 04:26:31;;;;;;;155.73;54.13;;;5.40;99.90;;;;;;4973521;28;20066;-75
2021/05/19 04:28:58;;;;;;;120.82;47.72;;;5.40;99.90;;;;;;4974268;28;20453;-75
2021/05/19 04:31:27;;;;;;;132.55;49.45;;;5.50;99.90;;;;;;4999196;28;20048;-76
2021/05/19 04:33:55;;;;;;;142.02;54.50;;;5.60;99.90;;;;;;4985243;28;20057;-75
2021/05/19 04:36:27;;;;;;;136.63;57.38;;;5.60;99.90;;;;;;4984665;28;20036;-75
2021/05/19 04:38:56;;;;;;;172.82;63.38;;;5.70;99.90;;;;;;5000880;28;20050;-75
2021/05/19 04:41:26;;;;;;;161.10;65.00;;;5.80;99.90;;;;;;4981906;28;20513;-75
2021/05/19 04:43:55;;;;;;;159.95;63.25;;;6.00;99.90;;;;;;4990734;28;20623;-75
2021/05/19 04:46:30;;;;;;;166.60;64.07;;;6.10;99.90;;;;;;4981902;28;20037;-75
2021/05/19 04:48:59;;;;;;;163.63;64.50;;;6.20;99.90;;;;;;4985639;28;20442;-75
2021/05/19 04:51:28;;;;;;;167.30;62.95;;;6.30;99.90;;;;;;4993051;28;20069;-76
2021/05/19 04:53:58;;;;;;;139.60;62.40;;;6.40;99.90;;;;;;4984882;28;20052;-76
2021/05/19 04:56:24;;;;;;;167.10;68.93;;;6.50;99.90;;;;;;4971906;28;20108;-76
2021/05/19 04:58:51;;;;;;;171.80;68.68;;;6.70;99.90;;;;;;4982139;28;20425;-76
2021/05/19 05:01:18;;;;;;;169.75;68.35;;;6.80;99.90;;;;;;4998761;28;20466;-76
2021/05/19 05:03:45;;;;;;;158.57;66.72;;;6.90;99.90;;;;;;4972496;28;20052;-76
2021/05/19 05:06:43;;;;;;;;;;;7.00;99.90;;;;;;4979724;28;20505;-76
2021/05/19 05:09:20;;;;;;;177.45;68.35;;;7.20;99.90;;;;;;4996745;28;20255;-76
2021/05/19 05:11:56;;;;;;;179.10;69.20;;;7.30;99.90;;;;;;4981684;28;20046;-76
2021/05/19 05:14:31;;;;;;;160.43;66.13;;;7.40;99.90;;;;;;4981808;28;20043;-76
2021/05/19 05:16:58;;;;;;;163.07;69.35;;;7.50;99.90;;;;;;4969525;28;20131;-77
2021/05/19 05:19:25;;;;;;;146.05;66.95;;;7.50;99.90;;;;;;5002974;28;20119;-76
2021/05/19 05:21:52;;;;;;;157.95;69.10;;;7.60;99.90;;;;;;4985307;28;20046;-76
2021/05/19 05:24:32;;;;;;;135.10;63.00;;;7.70;99.90;;;;;;4972912;28;20081;-76
2021/05/19 05:26:59;;;;;;;145.68;66.78;;;7.80;99.90;;;;;;4983023;28;20038;-76
2021/05/19 05:29:26;;;;;;;139.07;66.35;;;7.90;99.90;;;;;;4981683;28;20060;-76
2021/05/19 05:31:52;;;;;;;137.00;64.38;;;8.00;99.90;;;;;;4985860;28;20570;-76
2021/05/19 05:34:29;;;;;;;137.02;65.90;;;8.10;99.90;;;;;;4977887;28;20105;-76
2021/05/19 05:36:58;;;;;;;136.60;67.20;;;8.20;99.90;;;;;;4983635;28;20050;-76
2021/05/19 05:39:28;;;;;;;122.20;63.10;;;8.40;99.90;;;;;;4970347;28;20554;-76
2021/05/19 05:41:58;;;;;;;109.65;60.42;;;8.60;99.90;;;;;;4953290;28;20160;-76
2021/05/19 05:44:31;;;;;;;96.68;56.67;;;8.80;99.90;;;;;;4998003;28;20046;-76
2021/05/19 05:46:59;;;;;;;105.10;59.10;;;9.00;99.90;;;;;;4979059;28;20049;-76
2021/05/19 05:49:29;;;;;;;91.30;55.08;;;9.00;99.90;;;;;;4985410;28;20045;-76
2021/05/19 05:51:59;;;;;;;89.40;54.45;;;9.30;99.90;;;;;;4995508;28;20052;-76
2021/05/19 05:54:30;;;;;;;92.03;55.92;;;9.50;99.90;;;;;;5006406;28;20327;-76
2021/05/19 05:56:59;;;;;;;81.00;52.25;;;9.80;99.90;;;;;;5012897;28;20038;-76
2021/05/19 05:59:29;;;;;;;89.70;56.17;;;9.90;99.90;;;;;;5012539;28;20134;-76
2021/05/19 06:01:58;;;;;;;76.97;48.22;;;10.00;99.90;;;;;;5020579;28;20137;-76
2021/05/19 06:04:40;;;;;;;81.72;54.63;;;9.90;99.90;;;;;;4973766;28;20513;-76
2021/05/19 06:07:07;;;;;;;86.85;52.95;;;9.80;99.90;;;;;;4988629;28;20046;-76
2021/05/19 06:09:34;;;;;;;95.10;60.10;;;9.80;99.90;;;;;;4989906;28;20560;-77
2021/05/19 06:12:02;;;;;;;95.47;57.28;;;9.80;99.90;;;;;;4972014;28;20049;-76
2021/05/19 06:14:33;;;;;;;82.60;52.75;;;9.70;99.90;;;;;;5003441;28;20261;-77
2021/05/19 06:17:02;;;;;;;83.65;55.75;;;9.80;99.90;;;;;;4962106;28;20303;-77
2021/05/19 06:19:31;;;;;;;77.05;53.67;;;10.00;99.90;;;;;;5007980;28;20314;-76
2021/05/19 06:22:01;;;;;;;70.07;47.90;;;10.20;99.90;;;;;;5008387;28;20037;-76
2021/05/19 06:24:30;;;;;;;71.97;49.08;;;10.20;99.90;;;;;;5009007;28;20050;-76
2021/05/19 06:26:58;;;;;;;72.78;47.45;;;10.40;99.90;;;;;;4999936;28;20038;-76
2021/05/19 06:29:28;;;;;;;65.03;45.85;;;10.60;99.90;;;;;;4991309;28;20418;-76
2021/05/19 06:31:56;;;;;;;65.65;45.92;;;10.80;99.90;;;;;;4974269;28;20381;-76
2021/05/19 06:34:29;;;;;;;78.25;52.78;;;10.90;99.90;;;;;;5001433;28;20046;-76
2021/05/19 06:36:58;;;;;;;72.30;46.72;;;11.20;99.90;;;;;;5003241;28;20318;-76
2021/05/19 06:39:35;;;;;;;61.72;43.70;;;11.20;99.90;;;;;;5000125;28;20255;-76
2021/05/19 06:42:03;;;;;;;62.85;45.00;;;11.30;99.90;;;;;;4998202;28;20376;-76
2021/05/19 06:44:30;;;;;;;53.25;41.08;;;11.60;99.90;;;;;;4953529;28;20046;-76
2021/05/19 06:46:57;;;;;;;45.90;34.88;;;11.60;99.90;;;;;;4967447;28;20050;-76
2021/05/19 06:49:28;;;;;;;42.47;34.80;;;11.50;99.90;;;;;;5006072;28;20096;-76
2021/05/19 06:51:56;;;;;;;38.35;31.73;;;11.60;99.90;;;;;;4979278;28;20038;-76
2021/05/19 06:54:34;;;;;;;48.95;34.78;;;11.50;99.90;;;;;;5002911;28;20534;-76
2021/05/19 06:57:01;;;;;;;42.85;33.53;;;11.50;99.90;;;;;;4970089;28;20564;-74
2021/05/19 06:59:33;;;;;;;42.17;33.08;;;11.40;99.90;;;;;;5001993;28;20096;-73
2021/05/19 07:02:00;;;;;;;34.30;29.48;;;11.50;99.90;;;;;;5018461;28;20069;-74
2021/05/19 07:04:27;;;;;;;37.90;28.50;;;11.80;99.90;;;;;;5000221;28;20294;-74
2021/05/19 07:06:53;;;;;;;36.42;31.35;;;12.20;99.90;;;;;;4988133;28;20054;-73
2021/05/19 07:09:29;;;;;;;40.75;33.00;;;11.80;99.90;;;;;;4989377;28;20081;-73
2021/05/19 07:11:56;;;;;;;40.33;33.75;;;11.80;99.90;;;;;;4987383;28;20038;-73
2021/05/19 07:14:28;;;;;;;38.28;32.78;;;11.70;99.90;;;;;;4988195;28;20050;-73
2021/05/19 07:16:57;;;;;;;41.15;32.00;;;11.70;99.90;;;;;;4980847;28;20041;-74
2021/05/19 07:19:30;;;;;;;45.15;32.88;;;11.40;99.90;;;;;;5005686;28;20136;-73
2021/05/19 07:21:59;;;;;;;41.78;32.88;;;11.20;99.90;;;;;;5022135;28;20437;-74
2021/05/19 07:24:29;;;;;;;41.05;31.52;;;11.20;99.90;;;;;;5008029;28;20068;-73
2021/05/19 07:26:56;;;;;;;42.00;32.53;;;11.20;99.90;;;;;;4986010;28;20077;-72
2021/05/19 07:29:30;;;;;;;39.10;31.90;;;11.30;99.90;;;;;;5014215;28;20085;-73
2021/05/19 07:31:59;;;;;;;40.78;30.92;;;11.50;99.90;;;;;;4997973;28;20525;-73
2021/05/19 07:34:39;;;;;;;37.63;30.70;;;11.60;99.90;;;;;;4953665;28;20058;-73
2021/05/19 07:37:06;;;;;;;31.10;27.75;;;11.70;99.90;;;;;;4968439;28;20141;-74
2021/05/19 07:39:35;;;;;;;39.20;30.33;;;11.90;99.90;;;;;;4951772;28;20631;-73
2021/05/19 07:42:02;;;;;;;36.35;30.10;;;12.40;99.90;;;;;;4967272;28;20053;-72
2021/05/19 07:44:34;;;;;;;35.53;28.80;;;12.80;99.90;;;;;;4988020;28;20060;-73
2021/05/19 07:47:00;;;;;;;36.70;28.35;;;13.30;99.90;;;;;;5003405;28;20084;-73
2021/05/19 07:49:31;;;;;;;28.67;23.90;;;13.30;99.90;;;;;;4989022;28;20041;-73
2021/05/19 07:51:57;;;;;;;30.45;24.92;;;13.40;99.90;;;;;;4966019;28;20048;-74
2021/05/19 07:54:32;;;;;;;31.48;28.08;;;13.20;99.90;;;;;;5001710;28;20033;-73
2021/05/19 07:57:11;;;;;;;27.30;23.95;;;13.20;99.90;;;;;;5004204;28;20169;-74
2021/05/19 07:59:37;;;;;;;31.58;25.30;;;13.40;99.90;;;;;;5012733;28;20045;-73
2021/05/19 08:02:04;;;;;;;30.48;23.70;;;13.30;99.90;;;;;;4981772;28;20038;-73
2021/05/19 08:04:34;;;;;;;31.92;27.27;;;12.80;99.90;;;;;;4987459;28;20100;-74
2021/05/19 08:07:02;;;;;;;29.23;25.27;;;12.70;99.90;;;;;;4969755;28;20053;-73
2021/05/19 08:09:32;;;;;;;30.33;22.88;;;13.00;99.90;;;;;;4972214;28;20180;-73
2021/05/19 08:11:58;;;;;;;35.42;26.45;;;13.10;99.90;;;;;;4955876;28;20034;-73
2021/05/19 08:14:32;;;;;;;32.38;27.77;;;13.10;99.90;;;;;;4996224;28;20415;-74
2021/05/19 08:16:59;;;;;;;31.73;28.53;;;13.10;99.90;;;;;;4971482;28;20050;-73
2021/05/19 08:19:34;;;;;;;31.30;28.20;;;13.30;99.90;;;;;;5003666;28;20050;-74
2021/05/19 08:22:01;;;;;;;33.70;30.20;;;13.50;99.90;;;;;;5018988;28;20367;-74
2021/05/19 08:24:33;;;;;;;32.40;29.23;;;13.70;99.90;;;;;;5015287;28;20133;-73
2021/05/19 08:27:01;;;;;;;33.78;30.38;;;13.90;99.90;;;;;;4986171;28;20052;-74
2021/05/19 08:29:31;;;;;;;29.77;26.52;;;14.40;99.90;;;;;;4995644;28;20049;-74
2021/05/19 08:31:59;;;;;;;30.88;27.60;;;14.70;99.90;;;;;;5011740;28;20394;-74
2021/05/19 08:34:32;;;;;;;31.33;28.30;;;14.60;99.90;;;;;;4983762;28;20410;-73
2021/05/19 08:36:59;;;;;;;27.90;25.20;;;14.70;99.90;;;;;;4967390;28;20478;-74
2021/05/19 08:39:31;;;;;;;30.13;27.40;;;15.00;99.90;;;;;;4982731;28;20129;-74
2021/05/19 08:42:01;;;;;;;29.23;26.52;;;15.20;99.90;;;;;;4960052;28;20077;-74
2021/05/19 08:44:34;;;;;;;32.40;29.33;;;15.00;99.90;;;;;;4995716;28;20101;-74
2021/05/19 08:47:00;;;;;;;32.65;29.80;;;15.10;99.90;;;;;;5003701;28;20290;-74
2021/05/19 08:49:36;;;;;;;34.72;31.30;;;15.00;99.90;;;;;;4991102;28;20498;-74
2021/05/19 08:52:03;;;;;;;36.55;32.95;;;14.70;99.90;;;;;;4968938;28;20606;-75
2021/05/19 08:54:30;;;;;;;41.63;37.50;;;14.60;99.90;;;;;;5002443;28;20494;-74
2021/05/19 08:56:57;;;;;;;39.65;35.40;;;14.20;99.90;;;;;;4985963;28;20077;-74
2021/05/19 08:59:32;;;;;;;39.65;35.67;;;14.00;99.90;;;;;;5010229;28;20067;-74
2021/05/19 09:02:10;;;;;;;39.08;34.88;;;13.70;99.90;;;;;;4997828;28;20589;-74
2021/05/19 09:04:37;;;;;;;42.95;38.42;;;13.50;99.90;;;;;;5005292;28;20046;-73
2021/05/19 09:07:04;;;;;;;41.75;37.30;;;13.30;99.90;;;;;;5004541;28;20506;-74
2021/05/19 09:09:35;;;;;;;41.85;36.90;;;13.10;99.90;;;;;;4990556;28;20084;-74
2021/05/19 09:12:16;;;;;;;42.85;38.03;;;13.10;99.90;;;;;;4954123;28;20053;-74
2021/05/19 09:15:01;;;;;;;45.88;40.40;;;13.20;99.90;;;;;;4997658;28;20512;-74
2021/05/19 09:17:29;;;;;;;40.70;36.58;;;13.70;99.90;;;;;;4986945;28;20287;-74
2021/05/19 09:20:02;;;;;;;45.65;40.90;;;13.90;99.90;;;;;;4989108;28;20053;-74
2021/05/19 09:22:32;;;;;;;43.92;39.42;;;13.90;99.90;;;;;;4981495;28;20053;-74
2021/05/19 09:25:03;;;;;;;48.80;42.75;;;14.20;99.90;;;;;;5004335;28;20103;-74
2021/05/19 09:27:42;;;;;;;41.30;36.75;;;14.30;99.90;;;;;;4949973;28;20050;-74
2021/05/19 09:30:09;;;;;;;43.33;38.92;;;14.60;99.90;;;;;;5005300;28;20128;-73
2021/05/19 09:32:39;;;;;;;41.15;37.20;;;15.00;99.90;;;;;;4984818;28;20135;-73
2021/05/19 09:35:10;;;;;;;41.58;37.28;;;15.10;99.90;;;;;;4985078;28;20054;-74
2021/05/19 09:37:37;;;;;;;37.08;33.35;;;15.40;99.90;;;;;;4969078;28;20348;-73
2021/05/19 09:40:09;;;;;;;40.92;36.53;;;15.20;99.90;;;;;;4986010;28;20466;-75
2021/05/19 09:42:36;;;;;;;39.75;35.67;;;15.10;99.90;;;;;;4986719;28;20365;-73
2021/05/19 09:45:39;;;;;;;42.22;37.47;;;14.90;99.90;;;;;;4981956;28;20304;-74
2021/05/19 09:48:06;;;;;;;38.90;34.88;;;14.90;99.90;;;;;;4984743;28;20136;-74
2021/05/19 09:50:43;;;;;;;38.53;34.42;;;15.20;99.90;;;;;;5002112;28;20037;-74
2021/05/19 09:53:16;;;;;;;35.10;31.55;;;15.30;99.90;;;;;;4983241;28;20138;-74
2021/05/19 09:56:06;;;;;;;27.20;24.75;;;15.00;99.90;;;;;;4987932;28;20076;-74
2021/05/19 09:58:36;;;;;;;27.17;24.52;;;14.80;99.90;;;;;;4978036;28;20544;-74
2021/05/19 10:01:04;;;;;;;29.08;26.17;;;14.50;99.90;;;;;;5006974;28;20092;-74
2021/05/19 10:03:34;;;;;;;28.33;25.73;;;14.40;99.90;;;;;;4977250;28;20049;-74
2021/05/19 10:08:32;;;;;;;27.45;24.73;;;14.30;99.90;;;;;;5002523;28;20360;-74
2021/05/19 10:11:04;;;;;;;25.35;23.00;;;14.00;99.90;;;;;;4969425;28;20045;-75
2021/05/19 10:13:33;;;;;;;26.05;23.70;;;13.80;99.90;;;;;;4986924;28;20478;-74
2021/05/19 10:16:06;;;;;;;27.67;25.15;;;13.80;99.90;;;;;;4976615;28;20517;-74
2021/05/19 10:19:25;;;;;;;25.77;23.63;;;14.30;99.90;;;;;;5003011;28;20137;-73
2021/05/19 10:21:59;;;;;;;24.05;22.13;;;15.00;99.90;;;;;;4975979;28;20123;-73
2021/05/19 10:24:50;;;;;;;25.77;23.17;;;14.60;99.90;;;;;;4986290;28;20149;-74
2021/05/19 10:27:19;;;;;;;24.17;21.90;;;13.80;99.90;;;;;;4967802;28;20104;-74
2021/05/19 10:29:47;;;;;;;50.70;26.92;;;12.90;99.90;;;;;;5004908;28;20151;-75
2021/05/19 10:32:37;;;;;;;36.45;26.70;;;11.80;99.90;;;;;;4946199;28;20608;-77
2021/05/19 10:35:10;;;;;;;33.88;26.50;;;10.00;99.90;;;;;;4978945;28;20082;-75
2021/05/19 10:37:40;;;;;;;41.45;28.85;;;9.10;99.90;;;;;;4985020;28;20058;-73
2021/05/19 10:40:06;;;;;;;36.42;25.67;;;8.80;99.90;;;;;;4975665;28;20597;-74
2021/05/19 10:42:56;;;;;;;43.65;27.98;;;8.80;99.90;;;;;;4969175;28;20043;-73
2021/05/19 10:45:23;;;;;;;36.45;26.88;;;9.00;99.90;;;;;;4942190;28;20141;-73
2021/05/19 10:47:50;;;;;;;43.13;28.35;;;9.40;99.90;;;;;;4983253;28;20097;-73
2021/05/19 10:50:34;;;;;;;49.63;32.60;;;9.50;99.90;;;;;;4985824;28;20047;-73
2021/05/19 11:01:48;;;;;;;41.45;26.95;;;9.70;99.90;;;;;;5004887;28;20215;-74
2021/05/19 11:04:34;;;;;;;43.35;30.20;;;9.80;99.90;;;;;;4983914;28;20155;-74
2021/05/19 11:07:04;;;;;;;34.58;26.38;;;9.90;99.90;;;;;;4967383;28;20565;-74
2021/05/19 11:09:36;;;;;;;36.90;26.20;;;9.80;99.90;;;;;;4966938;28;20045;-74
2021/05/19 11:12:22;;;;;;;44.90;31.15;;;9.70;99.90;;;;;;4980576;28;20061;-73
2021/05/19 11:15:06;;;;;;;45.47;32.28;;;9.80;99.90;;;;;;4996757;28;20495;-73
2021/05/19 11:20:09;;;;;;;64.05;36.55;;;10.50;99.90;;;;;;5019204;28;20123;-71
2021/05/19 11:22:36;;;;;;;29.52;24.35;;;11.10;99.90;;;;;;4979191;28;20081;-72
2021/05/19 11:25:06;;;;;;;34.92;26.52;;;11.00;99.90;;;;;;4972581;28;20240;-73
2021/05/19 11:27:35;;;;;;;32.05;27.38;;;10.90;99.90;;;;;;4989072;28;20052;-73
2021/05/19 11:30:10;;;;;;;24.73;21.80;;;10.90;99.90;;;;;;4998997;28;20421;-73
2021/05/19 11:32:37;;;;;;;27.77;23.57;;;10.80;99.90;;;;;;4998028;28;20061;-73
2021/05/19 11:35:22;;;;;;;28.45;25.45;;;10.90;99.90;;;;;;5005565;28;20072;-73
2021/05/19 11:38:05;;;;;;;28.98;24.15;;;11.10;99.90;;;;;;4971981;28;20060;-73
2021/05/19 11:40:51;;;;;;;25.40;20.90;;;11.50;99.90;;;;;;4987463;28;20147;-73
2021/05/19 11:43:23;;;;;;;22.38;19.13;;;11.50;99.90;;;;;;4987967;28;20104;-73
2021/05/19 11:45:59;;;;;;;18.52;16.67;;;11.30;99.90;;;;;;4948090;28;20041;-73
2021/05/19 11:48:30;;;;;;;20.20;18.27;;;11.20;99.90;;;;;;4994340;28;20273;-73
2021/05/19 11:51:43;;;;;;;17.30;15.80;;;11.10;99.90;;;;;;4961982;28;20060;-74
2021/05/19 11:54:11;;;;;;;16.25;14.85;;;11.30;99.90;;;;;;5003362;28;20085;-72
2021/05/19 11:57:04;;;;;;;18.73;17.30;;;11.50;99.90;;;;;;5003523;28;20391;-73
2021/05/19 11:59:35;;;;;;;19.77;18.08;;;11.80;99.90;;;;;;5019274;28;20049;-72
2021/05/19 12:02:04;;;;;;;19.58;17.63;;;12.10;99.90;;;;;;4996387;28;20057;-72
2021/05/19 12:04:40;;;;;;;16.67;15.10;;;12.80;99.90;;;;;;4988789;28;20065;-72
2021/05/19 12:07:09;;;;;;;21.70;19.88;;;13.00;99.90;;;;;;5037331;28;20099;-71
2021/05/19 12:09:43;;;;;;;22.70;20.85;;;13.00;99.90;;;;;;5004490;28;20773;-71
2021/05/19 12:12:14;;;;;;;21.67;19.40;;;12.90;99.90;;;;;;5021782;28;20132;-71
2021/05/19 12:14:54;;;;;;;20.90;19.00;;;13.30;99.90;;;;;;5024996;28;20538;-71
2021/05/19 12:17:40;;;;;;;22.63;20.60;;;13.90;99.90;;;;;;4994222;28;20513;-72
2021/05/19 12:20:19;;;;;;;21.27;19.17;;;14.10;99.90;;;;;;5018144;28;20057;-71
2021/05/19 12:22:47;;;;;;;22.15;19.95;;;14.00;99.90;;;;;;5009717;28;20077;-71
2021/05/19 12:25:14;;;;;;;22.40;20.27;;;13.60;99.90;;;;;;5004464;28;20057;-71
2021/05/19 12:27:41;;;;;;;21.05;19.10;;;13.30;99.90;;;;;;5010233;28;20085;-70
2021/05/19 12:30:09;;;;;;;19.08;17.20;;;13.20;99.90;;;;;;4997462;28;20140;-71
2021/05/19 12:32:36;;;;;;;16.48;14.93;;;13.30;99.90;;;;;;5028936;28;20070;-71
2021/05/19 12:35:13;;;;;;;15.65;14.00;;;13.50;99.90;;;;;;5014644;28;20054;-72
2021/05/19 12:37:41;;;;;;;14.63;13.20;;;13.50;99.90;;;;;;5022442;28;20085;-71
2021/05/19 12:40:09;;;;;;;16.45;14.18;;;13.60;99.90;;;;;;5004969;28;20092;-71
2021/05/19 12:42:44;;;;;;;15.70;14.05;;;13.80;99.90;;;;;;5000739;28;20080;-70
2021/05/19 12:45:14;;;;;;;15.05;13.40;;;14.30;99.90;;;;;;4977009;28;20053;-71
2021/05/19 13:14:44;;;;;;;16.75;15.35;;;15.30;99.90;;;;;;5013523;28;20061;-69
2021/05/19 13:17:37;;;;;;;16.10;14.80;;;15.60;99.90;;;;;;5015912;28;20048;-70
2021/05/19 13:20:10;;;;;;;15.57;14.05;;;15.60;99.90;;;;;;5019844;28;20509;-70
2021/05/19 13:39:55;;;;;;;15.20;14.07;;;15.50;99.90;;;;;;4961619;28;20543;-70
2021/05/19 13:42:22;;;;;;;15.02;13.90;;;15.30;99.90;;;;;;4992514;28;20056;-71
2021/05/19 13:44:49;;;;;;;16.15;15.05;;;15.20;99.90;;;;;;5002495;28;20061;-71
2021/05/19 13:47:16;;;;;;;15.23;13.90;;;15.10;99.90;;;;;;5020456;28;20216;-71
2021/05/19 13:49:56;;;;;;;14.05;13.10;;;15.10;99.90;;;;;;4972187;28;20049;-70
2021/05/19 13:52:23;;;;;;;13.77;12.68;;;15.20;99.90;;;;;;5019790;28;20076;-71